Airfield :
LOGIN :

Register | Disclaimer

   EN    FR    IT 

 










Legend :    VFR   Marginal VFR   IFR   Intensive IFR   Very Intensive IFR
Visi :
Ceiling :
>= 8 km
>= 3000ft
5 to 8 km
1000 to 3000 ft
1500m to 5 km
500 to 1000 ft
800 to 1500m
200 to 500 ft
< 800m
< 200 ft
Symbols :   Thunderstorms  Fog  Heavy snow  Heavy precipitations  Wind > 20 kt
SIGMETs :     Misc.  Thunderstorms  Icing  Turbulence  Mountain Waves  Volcanic Ashes







- Airport Elevation : 1234 ft
- IATA code : LUX


ELLX - Luxembourg Findel

CURRENT METAR :
  • 260520Z 21006KT 180V240 9000 FEW003 SCT005 BKN010 07/06 Q1012 TEMPO BKN006

EXPIRED METARs :
  • 260450Z 20006KT 9999 SCT010 BKN014 07/06 Q1012 NOSIG
  • 260420Z 21006KT 9999 SCT010 BKN014 07/06 Q1012 NOSIG
  • 260350Z AUTO 22005KT 9999 FEW005/// OVC010/// 07/06 Q1012 NOSIG
  • 260320Z 19005KT 9999 SCT005 BKN008 07/06 Q1012 NOSIG
  • 260250Z AUTO 22005KT 9999 OVC007/// 07/07 Q1012 NOSIG

TAF TAF ELLX
Valid from the 26 at 06:00 until the 27 at 12:00 UTC


260500Z 2606/2712 20008KT 9999 SCT010 BKN015
PROB40
TEMPO 2611/2620 -SHRA SCT010TCU BKN010
BECMG 2703/2706 26015G25KT 9999 BKN012
TEMPO 2709/2712 27020G35KT 6000 -SHRA -TS BKN010CB
ATIS : +352 4798 27300
Met : +352 4798 27010 / 27050
No reported NOTAMs for that airfield.



MET'MAP, your aeronautical weather chart ! - Copyright ORBIFLY December 2007 - Disclaimer

ORBIFLY MET'MAP TEAM :

Programming & Development : Alexandra Zaïnal
Concept & Development : Baudouin d'Aumeries
Co-Development & Prog : Marc-Olivier Méhu
Technical & hardware support : Manuel Goepfert

Contact : metmap@orbifly.com




SOURCES & CREDITS :

   NOAA